sensor_id;sensor_type;location;lat;lon;timestamp;pressure;altitude;pressure_sealevel;temperature;humidity
7264;BME280;3673;52.480;13.348;2023-02-03T00:01:57;101720.25;;;8.54;55.11
7264;BME280;3673;52.480;13.348;2023-02-03T00:04:24;101719.38;;;7.85;56.67
7264;BME280;3673;52.480;13.348;2023-02-03T00:06:51;101709.03;;;8.22;55.99
7264;BME280;3673;52.480;13.348;2023-02-03T00:09:18;101710.56;;;8.14;56.03
7264;BME280;3673;52.480;13.348;2023-02-03T00:11:46;101706.31;;;7.83;57.02
7264;BME280;3673;52.480;13.348;2023-02-03T00:14:13;101698.19;;;8.05;56.69
7264;BME280;3673;52.480;13.348;2023-02-03T00:16:40;101694.19;;;7.85;57.95
7264;BME280;3673;52.480;13.348;2023-02-03T00:19:07;101685.41;;;7.80;58.15
7264;BME280;3673;52.480;13.348;2023-02-03T00:21:33;101692.09;;;7.70;58.30
7264;BME280;3673;52.480;13.348;2023-02-03T00:24:00;101682.75;;;8.14;57.52
7264;BME280;3673;52.480;13.348;2023-02-03T00:26:27;101668.16;;;8.21;57.39
7264;BME280;3673;52.480;13.348;2023-02-03T00:28:55;101655.13;;;7.85;58.97
7264;BME280;3673;52.480;13.348;2023-02-03T00:31:24;101654.03;;;7.43;59.75
7264;BME280;3673;52.480;13.348;2023-02-03T00:33:55;101645.31;;;7.73;59.93
7264;BME280;3673;52.480;13.348;2023-02-03T00:36:24;101645.19;;;8.05;59.38
7264;BME280;3673;52.480;13.348;2023-02-03T00:38:51;101634.44;;;7.91;59.49
7264;BME280;3673;52.480;13.348;2023-02-03T00:41:19;101626.06;;;8.04;59.47
7264;BME280;3673;52.480;13.348;2023-02-03T00:43:46;101621.06;;;7.77;59.72
7264;BME280;3673;52.480;13.348;2023-02-03T00:46:15;101600.22;;;7.77;60.80
7264;BME280;3673;52.480;13.348;2023-02-03T00:48:41;101598.09;;;7.60;61.14
7264;BME280;3673;52.480;13.348;2023-02-03T00:51:08;101609.19;;;7.87;61.30
7264;BME280;3673;52.480;13.348;2023-02-03T00:53:35;101604.03;;;7.90;61.14
7264;BME280;3673;52.480;13.348;2023-02-03T00:56:02;101598.50;;;7.76;61.62
7264;BME280;3673;52.480;13.348;2023-02-03T00:58:28;101601.97;;;7.77;61.88
7264;BME280;3673;52.480;13.348;2023-02-03T01:00:55;101592.59;;;7.85;61.87
7264;BME280;3673;52.480;13.348;2023-02-03T01:03:23;101595.97;;;7.81;61.72
7264;BME280;3673;52.480;13.348;2023-02-03T01:05:50;101588.47;;;7.93;61.86
7264;BME280;3673;52.480;13.348;2023-02-03T01:08:17;101590.25;;;7.96;62.31
7264;BME280;3673;52.480;13.348;2023-02-03T01:10:44;101580.78;;;7.99;62.17
7264;BME280;3673;52.480;13.348;2023-02-03T01:13:10;101573.59;;;7.89;62.02
7264;BME280;3673;52.480;13.348;2023-02-03T01:15:37;101577.41;;;8.03;62.04
7264;BME280;3673;52.480;13.348;2023-02-03T01:18:04;101579.78;;;7.93;62.38
7264;BME280;3673;52.480;13.348;2023-02-03T01:20:32;101566.34;;;8.13;62.05
7264;BME280;3673;52.480;13.348;2023-02-03T01:22:58;101560.59;;;7.89;62.73
7264;BME280;3673;52.480;13.348;2023-02-03T01:25:25;101552.16;;;7.63;63.40
7264;BME280;3673;52.480;13.348;2023-02-03T01:27:52;101555.06;;;7.41;63.69
7264;BME280;3673;52.480;13.348;2023-02-03T01:30:19;101551.41;;;7.69;64.18
7264;BME280;3673;52.480;13.348;2023-02-03T01:32:45;101550.41;;;7.64;63.93
7264;BME280;3673;52.480;13.348;2023-02-03T01:35:12;101525.88;;;7.53;64.72
7264;BME280;3673;52.480;13.348;2023-02-03T01:37:40;101519.59;;;7.45;64.80
7264;BME280;3673;52.480;13.348;2023-02-03T01:40:09;101517.66;;;7.38;64.85
7264;BME280;3673;52.480;13.348;2023-02-03T01:42:36;101523.13;;;7.47;64.64
7264;BME280;3673;52.480;13.348;2023-02-03T01:45:03;101518.25;;;7.60;64.26
7264;BME280;3673;52.480;13.348;2023-02-03T01:47:34;101505.28;;;7.63;64.14
7264;BME280;3673;52.480;13.348;2023-02-03T01:50:09;101501.56;;;7.52;64.40
7264;BME280;3673;52.480;13.348;2023-02-03T01:52:40;101491.91;;;7.48;64.86
7264;BME280;3673;52.480;13.348;2023-02-03T01:55:10;101476.31;;;7.50;64.67
7264;BME280;3673;52.480;13.348;2023-02-03T01:57:42;101474.00;;;7.62;64.52
7264;BME280;3673;52.480;13.348;2023-02-03T02:00:12;101464.22;;;7.52;64.82
7264;BME280;3673;52.480;13.348;2023-02-03T02:02:39;101466.56;;;7.41;64.68
7264;BME280;3673;52.480;13.348;2023-02-03T02:05:13;101465.25;;;7.22;65.02
7264;BME280;3673;52.480;13.348;2023-02-03T02:07:43;101458.88;;;7.10;65.68
7264;BME280;3673;52.480;13.348;2023-02-03T02:10:11;101465.47;;;7.32;64.87
7264;BME280;3673;52.480;13.348;2023-02-03T02:12:37;101452.41;;;7.66;64.54
7264;BME280;3673;52.480;13.348;2023-02-03T02:15:06;101438.44;;;7.64;64.57
7264;BME280;3673;52.480;13.348;2023-02-03T02:18:06;101422.44;;;7.46;64.62
7264;BME280;3673;52.480;13.348;2023-02-03T02:21:00;101410.00;;;7.73;63.63
7264;BME280;3673;52.480;13.348;2023-02-03T02:27:08;101398.22;;;7.50;64.76
7264;BME280;3673;52.480;13.348;2023-02-03T02:30:16;101387.31;;;7.29;64.79
7264;BME280;3673;52.480;13.348;2023-02-03T02:33:03;101372.97;;;7.46;64.82
7264;BME280;3673;52.480;13.348;2023-02-03T02:35:46;101357.88;;;7.71;63.98
7264;BME280;3673;52.480;13.348;2023-02-03T02:38:30;101355.13;;;7.64;63.98
7264;BME280;3673;52.480;13.348;2023-02-03T02:41:03;101340.25;;;7.58;64.22
7264;BME280;3673;52.480;13.348;2023-02-03T02:43:39;101331.47;;;7.53;64.67
7264;BME280;3673;52.480;13.348;2023-02-03T02:46:11;101320.78;;;7.40;63.98
7264;BME280;3673;52.480;13.348;2023-02-03T02:48:46;101324.34;;;7.45;64.04
7264;BME280;3673;52.480;13.348;2023-02-03T02:51:15;101331.09;;;7.35;64.99
7264;BME280;3673;52.480;13.348;2023-02-03T02:53:47;101311.53;;;7.54;64.28
7264;BME280;3673;52.480;13.348;2023-02-03T02:56:16;101304.56;;;7.12;65.11
7264;BME280;3673;52.480;13.348;2023-02-03T02:58:46;101305.00;;;7.32;64.67
7264;BME280;3673;52.480;13.348;2023-02-03T03:01:15;101289.53;;;6.99;65.46
7264;BME280;3673;52.480;13.348;2023-02-03T03:03:44;101287.78;;;6.98;65.60
7264;BME280;3673;52.480;13.348;2023-02-03T03:06:17;101280.16;;;7.06;65.79
7264;BME280;3673;52.480;13.348;2023-02-03T03:08:50;101261.50;;;7.27;65.53
7264;BME280;3673;52.480;13.348;2023-02-03T03:11:20;101278.63;;;7.15;65.69
7264;BME280;3673;52.480;13.348;2023-02-03T03:13:51;101280.34;;;7.15;65.57
7264;BME280;3673;52.480;13.348;2023-02-03T03:16:23;101276.59;;;7.02;66.35
7264;BME280;3673;52.480;13.348;2023-02-03T03:18:55;101261.25;;;7.14;66.26
7264;BME280;3673;52.480;13.348;2023-02-03T03:21:28;101251.06;;;7.25;66.16
7264;BME280;3673;52.480;13.348;2023-02-03T03:23:58;101239.81;;;7.28;65.63
7264;BME280;3673;52.480;13.348;2023-02-03T03:26:31;101226.75;;;7.23;65.92
7264;BME280;3673;52.480;13.348;2023-02-03T03:29:09;101220.94;;;7.38;65.82
7264;BME280;3673;52.480;13.348;2023-02-03T03:31:38;101207.81;;;7.32;65.96
7264;BME280;3673;52.480;13.348;2023-02-03T03:34:08;101212.09;;;7.28;66.58
7264;BME280;3673;52.480;13.348;2023-02-03T03:36:40;101206.00;;;7.28;66.55
7264;BME280;3673;52.480;13.348;2023-02-03T03:39:15;101201.31;;;7.53;66.44
7264;BME280;3673;52.480;13.348;2023-02-03T03:41:55;101203.06;;;7.54;65.90
7264;BME280;3673;52.480;13.348;2023-02-03T03:44:27;101191.91;;;7.16;67.09
7264;BME280;3673;52.480;13.348;2023-02-03T03:47:04;101194.19;;;7.45;66.75
7264;BME280;3673;52.480;13.348;2023-02-03T03:49:35;101193.56;;;7.58;66.63
7264;BME280;3673;52.480;13.348;2023-02-03T03:52:06;101183.88;;;7.51;66.27
7264;BME280;3673;52.480;13.348;2023-02-03T03:54:35;101185.75;;;7.56;66.73
7264;BME280;3673;52.480;13.348;2023-02-03T03:57:08;101179.03;;;7.69;66.26
7264;BME280;3673;52.480;13.348;2023-02-03T03:59:43;101185.31;;;7.82;66.26
7264;BME280;3673;52.480;13.348;2023-02-03T04:02:12;101188.00;;;7.86;65.83
7264;BME280;3673;52.480;13.348;2023-02-03T04:04:41;101183.66;;;7.85;65.89
7264;BME280;3673;52.480;13.348;2023-02-03T04:07:10;101175.19;;;7.98;65.37
7264;BME280;3673;52.480;13.348;2023-02-03T04:09:37;101168.72;;;7.73;66.36
7264;BME280;3673;52.480;13.348;2023-02-03T04:12:15;101161.72;;;7.72;66.45
7264;BME280;3673;52.480;13.348;2023-02-03T04:14:45;101150.81;;;7.95;66.39
7264;BME280;3673;52.480;13.348;2023-02-03T04:17:12;101132.47;;;7.87;66.44
7264;BME280;3673;52.480;13.348;2023-02-03T04:19:38;101136.47;;;7.67;67.00
7264;BME280;3673;52.480;13.348;2023-02-03T04:22:06;101133.28;;;7.85;67.07
7264;BME280;3673;52.480;13.348;2023-02-03T04:24:33;101136.31;;;8.10;66.68
7264;BME280;3673;52.480;13.348;2023-02-03T04:27:00;101111.53;;;8.37;65.42
7264;BME280;3673;52.480;13.348;2023-02-03T04:29:26;101122.06;;;8.43;65.49
7264;BME280;3673;52.480;13.348;2023-02-03T04:31:53;101115.75;;;8.28;66.11
7264;BME280;3673;52.480;13.348;2023-02-03T04:34:20;101102.88;;;8.39;65.80
7264;BME280;3673;52.480;13.348;2023-02-03T04:36:46;101096.81;;;8.40;66.07
7264;BME280;3673;52.480;13.348;2023-02-03T04:39:15;101088.72;;;8.23;66.19
7264;BME280;3673;52.480;13.348;2023-02-03T04:41:41;101083.47;;;8.20;66.93
7264;BME280;3673;52.480;13.348;2023-02-03T04:44:08;101077.63;;;8.34;66.43
7264;BME280;3673;52.480;13.348;2023-02-03T04:46:35;101073.91;;;8.86;65.41
7264;BME280;3673;52.480;13.348;2023-02-03T04:49:02;101073.97;;;8.90;65.08
7264;BME280;3673;52.480;13.348;2023-02-03T04:51:28;101059.22;;;8.95;65.34
7264;BME280;3673;52.480;13.348;2023-02-03T04:53:55;101050.66;;;9.07;64.94
7264;BME280;3673;52.480;13.348;2023-02-03T04:56:23;101045.31;;;8.98;65.87
7264;BME280;3673;52.480;13.348;2023-02-03T04:58:50;101040.13;;;8.99;65.83
7264;BME280;3673;52.480;13.348;2023-02-03T05:01:16;101040.38;;;9.20;65.51
7264;BME280;3673;52.480;13.348;2023-02-03T05:03:43;101039.72;;;9.49;64.90
7264;BME280;3673;52.480;13.348;2023-02-03T05:06:10;101034.34;;;9.32;65.47
7264;BME280;3673;52.480;13.348;2023-02-03T05:08:37;101030.75;;;9.16;65.97
7264;BME280;3673;52.480;13.348;2023-02-03T05:11:04;101036.13;;;9.35;66.54
7264;BME280;3673;52.480;13.348;2023-02-03T05:13:32;101027.44;;;9.36;66.65
7264;BME280;3673;52.480;13.348;2023-02-03T05:15:58;101027.53;;;9.49;67.13
7264;BME280;3673;52.480;13.348;2023-02-03T05:18:25;101014.44;;;9.43;67.12
7264;BME280;3673;52.480;13.348;2023-02-03T05:20:52;101017.94;;;9.45;67.50
7264;BME280;3673;52.480;13.348;2023-02-03T05:23:18;101018.09;;;9.63;67.26
7264;BME280;3673;52.480;13.348;2023-02-03T05:25:45;101018.13;;;9.71;67.38
7264;BME280;3673;52.480;13.348;2023-02-03T05:28:12;101012.09;;;9.79;67.48
7264;BME280;3673;52.480;13.348;2023-02-03T05:30:40;100999.81;;;9.63;67.66
7264;BME280;3673;52.480;13.348;2023-02-03T05:33:07;101000.75;;;9.76;68.05
7264;BME280;3673;52.480;13.348;2023-02-03T05:35:33;100996.59;;;10.10;67.60
7264;BME280;3673;52.480;13.348;2023-02-03T05:38:01;100994.91;;;10.21;68.05
7264;BME280;3673;52.480;13.348;2023-02-03T05:40:27;100982.50;;;9.85;68.23
7264;BME280;3673;52.480;13.348;2023-02-03T05:43:12;100986.28;;;10.32;67.87
7264;BME280;3673;52.480;13.348;2023-02-03T05:45:40;100981.97;;;10.47;67.46
7264;BME280;3673;52.480;13.348;2023-02-03T05:48:07;100974.88;;;10.17;67.93
7264;BME280;3673;52.480;13.348;2023-02-03T05:50:35;100971.50;;;10.47;67.88
7264;BME280;3673;52.480;13.348;2023-02-03T05:53:04;100971.44;;;10.31;68.60
7264;BME280;3673;52.480;13.348;2023-02-03T05:55:32;100956.72;;;10.59;67.95
7264;BME280;3673;52.480;13.348;2023-02-03T05:57:59;100951.34;;;10.14;68.48
7264;BME280;3673;52.480;13.348;2023-02-03T06:00:27;100949.69;;;10.39;68.77
7264;BME280;3673;52.480;13.348;2023-02-03T06:02:57;100947.00;;;10.20;69.41
7264;BME280;3673;52.480;13.348;2023-02-03T06:05:25;100938.41;;;10.64;68.99
7264;BME280;3673;52.480;13.348;2023-02-03T06:07:52;100930.53;;;10.47;68.87
7264;BME280;3673;52.480;13.348;2023-02-03T06:10:19;100914.84;;;10.59;68.81
7264;BME280;3673;52.480;13.348;2023-02-03T06:12:47;100911.31;;;10.36;69.71
7264;BME280;3673;52.480;13.348;2023-02-03T06:15:14;100922.66;;;10.38;69.44
7264;BME280;3673;52.480;13.348;2023-02-03T06:17:43;100908.75;;;10.59;68.88
7264;BME280;3673;52.480;13.348;2023-02-03T06:20:14;100911.38;;;10.65;69.04
7264;BME280;3673;52.480;13.348;2023-02-03T06:22:42;100915.72;;;10.49;68.88
7264;BME280;3673;52.480;13.348;2023-02-03T06:25:09;100892.19;;;10.69;69.48
7264;BME280;3673;52.480;13.348;2023-02-03T06:27:37;100890.47;;;10.89;69.05
7264;BME280;3673;52.480;13.348;2023-02-03T06:30:05;100901.72;;;10.38;69.67
7264;BME280;3673;52.480;13.348;2023-02-03T06:32:32;100898.31;;;10.63;69.70
7264;BME280;3673;52.480;13.348;2023-02-03T06:34:58;100896.53;;;10.74;69.78
7264;BME280;3673;52.480;13.348;2023-02-03T06:37:26;100903.47;;;10.39;70.05
7264;BME280;3673;52.480;13.348;2023-02-03T06:39:53;100900.03;;;10.64;70.01
7264;BME280;3673;52.480;13.348;2023-02-03T06:42:20;100893.97;;;10.87;69.56
7264;BME280;3673;52.480;13.348;2023-02-03T06:44:47;100897.44;;;10.82;69.60
7264;BME280;3673;52.480;13.348;2023-02-03T06:47:13;100891.31;;;10.67;69.95
7264;BME280;3673;52.480;13.348;2023-02-03T06:49:40;100878.25;;;10.79;69.46
7264;BME280;3673;52.480;13.348;2023-02-03T06:52:07;100875.63;;;10.80;68.97
7264;BME280;3673;52.480;13.348;2023-02-03T06:54:35;100861.66;;;10.92;68.30
7264;BME280;3673;52.480;13.348;2023-02-03T06:57:02;100868.66;;;10.87;69.80
7264;BME280;3673;52.480;13.348;2023-02-03T06:59:29;100863.41;;;11.05;69.24
7264;BME280;3673;52.480;13.348;2023-02-03T07:01:55;100871.25;;;10.89;69.54
7264;BME280;3673;52.480;13.348;2023-02-03T07:04:22;100854.69;;;10.90;69.29
7264;BME280;3673;52.480;13.348;2023-02-03T07:06:49;100851.16;;;11.04;69.39
7264;BME280;3673;52.480;13.348;2023-02-03T07:09:16;100855.56;;;10.92;69.01
7264;BME280;3673;52.480;13.348;2023-02-03T07:11:44;100832.03;;;10.87;70.25
7264;BME280;3673;52.480;13.348;2023-02-03T07:14:11;100828.53;;;10.87;70.26
7264;BME280;3673;52.480;13.348;2023-02-03T07:16:37;100821.53;;;10.75;70.30
7264;BME280;3673;52.480;13.348;2023-02-03T07:19:04;100815.38;;;11.11;69.60
7264;BME280;3673;52.480;13.348;2023-02-03T07:21:31;100814.50;;;11.12;69.14
7264;BME280;3673;52.480;13.348;2023-02-03T07:23:58;100811.97;;;10.77;69.66
7264;BME280;3673;52.480;13.348;2023-02-03T07:26:26;100804.88;;;11.24;68.86
7264;BME280;3673;52.480;13.348;2023-02-03T07:28:54;100803.19;;;11.10;69.44
7264;BME280;3673;52.480;13.348;2023-02-03T07:31:24;100789.16;;;11.27;68.99
7264;BME280;3673;52.480;13.348;2023-02-03T07:33:51;100780.50;;;11.10;69.11
7264;BME280;3673;52.480;13.348;2023-02-03T07:36:17;100777.84;;;11.15;69.13
7264;BME280;3673;52.480;13.348;2023-02-03T07:38:44;100763.97;;;10.78;69.63
7264;BME280;3673;52.480;13.348;2023-02-03T07:41:11;100792.78;;;10.55;71.28
7264;BME280;3673;52.480;13.348;2023-02-03T07:43:37;100765.75;;;10.62;71.63
7264;BME280;3673;52.480;13.348;2023-02-03T07:46:06;100763.09;;;10.77;71.50
7264;BME280;3673;52.480;13.348;2023-02-03T07:48:32;100765.66;;;11.02;70.22
7264;BME280;3673;52.480;13.348;2023-02-03T07:50:59;100753.53;;;10.42;71.31
7264;BME280;3673;52.480;13.348;2023-02-03T07:53:26;100749.03;;;11.21;70.09
7264;BME280;3673;52.480;13.348;2023-02-03T07:55:53;100753.53;;;10.66;70.99
7264;BME280;3673;52.480;13.348;2023-02-03T07:58:19;100747.41;;;10.76;71.93
7264;BME280;3673;52.480;13.348;2023-02-03T08:00:46;100748.28;;;10.72;70.69
7264;BME280;3673;52.480;13.348;2023-02-03T08:03:14;100741.28;;;10.94;70.63
7264;BME280;3673;52.480;13.348;2023-02-03T08:05:41;100734.31;;;10.83;70.72
7264;BME280;3673;52.480;13.348;2023-02-03T08:08:08;100730.81;;;10.94;71.58
7264;BME280;3673;52.480;13.348;2023-02-03T08:10:34;100724.72;;;10.78;70.99
7264;BME280;3673;52.480;13.348;2023-02-03T08:13:01;100705.50;;;10.97;70.96
7264;BME280;3673;52.480;13.348;2023-02-03T08:15:28;100708.84;;;11.34;69.49
7264;BME280;3673;52.480;13.348;2023-02-03T08:17:55;100703.78;;;10.78;70.90
7264;BME280;3673;52.480;13.348;2023-02-03T08:20:23;100703.69;;;11.13;70.49
7264;BME280;3673;52.480;13.348;2023-02-03T08:22:50;100698.53;;;10.89;70.68
7264;BME280;3673;52.480;13.348;2023-02-03T08:25:18;100700.19;;;11.11;70.66
7264;BME280;3673;52.480;13.348;2023-02-03T08:27:44;100697.63;;;10.91;70.48
7264;BME280;3673;52.480;13.348;2023-02-03T08:30:13;100680.94;;;11.27;70.17
7264;BME280;3673;52.480;13.348;2023-02-03T08:32:40;100696.81;;;10.77;70.62
7264;BME280;3673;52.480;13.348;2023-02-03T08:35:07;100681.00;;;11.13;70.69
7264;BME280;3673;52.480;13.348;2023-02-03T08:37:35;100679.25;;;11.09;69.72
7264;BME280;3673;52.480;13.348;2023-02-03T08:40:03;100675.78;;;11.06;69.91
7264;BME280;3673;52.480;13.348;2023-02-03T08:42:30;100680.84;;;11.37;69.60
7264;BME280;3673;52.480;13.348;2023-02-03T08:44:57;100672.16;;;11.31;69.76
7264;BME280;3673;52.480;13.348;2023-02-03T08:47:24;100658.31;;;11.14;70.39
7264;BME280;3673;52.480;13.348;2023-02-03T08:49:50;100669.63;;;11.16;70.54
7264;BME280;3673;52.480;13.348;2023-02-03T08:52:18;100667.88;;;11.16;70.72
7264;BME280;3673;52.480;13.348;2023-02-03T08:54:46;100650.41;;;11.18;70.63
7264;BME280;3673;52.480;13.348;2023-02-03T08:57:13;100641.72;;;11.13;70.68
7264;BME280;3673;52.480;13.348;2023-02-03T08:59:42;100646.81;;;11.37;70.48
7264;BME280;3673;52.480;13.348;2023-02-03T09:02:14;100641.75;;;11.01;71.93
7264;BME280;3673;52.480;13.348;2023-02-03T09:04:42;100652.22;;;11.09;71.30
7264;BME280;3673;52.480;13.348;2023-02-03T09:07:09;100633.03;;;10.98;71.55
7264;BME280;3673;52.480;13.348;2023-02-03T09:09:36;100645.28;;;10.97;70.87
7264;BME280;3673;52.480;13.348;2023-02-03T09:12:05;100623.41;;;11.13;71.04
7264;BME280;3673;52.480;13.348;2023-02-03T09:14:32;100629.66;;;10.71;72.30
7264;BME280;3673;52.480;13.348;2023-02-03T09:16:59;100634.81;;;11.00;71.76
7264;BME280;3673;52.480;13.348;2023-02-03T09:19:26;100635.69;;;10.96;71.27
7264;BME280;3673;52.480;13.348;2023-02-03T09:21:53;100609.19;;;11.54;70.68
7264;BME280;3673;52.480;13.348;2023-02-03T09:24:22;100612.75;;;11.42;69.96
7264;BME280;3673;52.480;13.348;2023-02-03T09:26:48;100620.69;;;11.25;70.40
7264;BME280;3673;52.480;13.348;2023-02-03T09:29:17;100612.66;;;11.57;69.85
7264;BME280;3673;52.480;13.348;2023-02-03T09:31:43;100624.34;;;10.94;71.44
7264;BME280;3673;52.480;13.348;2023-02-03T09:34:12;100614.78;;;10.89;71.90
7264;BME280;3673;52.480;13.348;2023-02-03T09:36:39;100600.53;;;11.38;70.95
7264;BME280;3673;52.480;13.348;2023-02-03T09:39:05;100596.19;;;11.35;71.44
7264;BME280;3673;52.480;13.348;2023-02-03T09:41:59;100590.03;;;11.44;70.58
7264;BME280;3673;52.480;13.348;2023-02-03T09:44:36;100604.97;;;11.30;70.35
7264;BME280;3673;52.480;13.348;2023-02-03T09:47:11;100585.81;;;11.19;71.60
7264;BME280;3673;52.480;13.348;2023-02-03T09:49:43;100571.69;;;11.41;71.45
7264;BME280;3673;52.480;13.348;2023-02-03T09:52:17;100576.00;;;11.51;70.54
7264;BME280;3673;52.480;13.348;2023-02-03T09:54:51;100576.41;;;10.91;71.57
7264;BME280;3673;52.480;13.348;2023-02-03T09:57:23;100569.25;;;11.18;71.67
7264;BME280;3673;52.480;13.348;2023-02-03T09:59:53;100560.31;;;11.48;71.19
7264;BME280;3673;52.480;13.348;2023-02-03T10:02:36;100554.19;;;11.49;70.17
7264;BME280;3673;52.480;13.348;2023-02-03T10:05:19;100543.56;;;11.72;69.85
7264;BME280;3673;52.480;13.348;2023-02-03T10:07:57;100529.13;;;11.12;70.86
7264;BME280;3673;52.480;13.348;2023-02-03T10:10:37;100531.44;;;11.54;70.57
7264;BME280;3673;52.480;13.348;2023-02-03T10:13:24;100507.94;;;11.47;70.69
7264;BME280;3673;52.480;13.348;2023-02-03T10:16:29;100499.75;;;11.84;70.21
7264;BME280;3673;52.480;13.348;2023-02-03T10:19:08;100493.66;;;11.81;68.83
7264;BME280;3673;52.480;13.348;2023-02-03T10:21:39;100503.72;;;11.29;70.95
7264;BME280;3673;52.480;13.348;2023-02-03T10:24:11;100500.94;;;11.49;71.03
7264;BME280;3673;52.480;13.348;2023-02-03T10:26:40;100489.63;;;11.42;71.29
7264;BME280;3673;52.480;13.348;2023-02-03T10:29:19;100483.53;;;11.42;70.59
7264;BME280;3673;52.480;13.348;2023-02-03T10:31:47;100503.47;;;11.58;70.68
7264;BME280;3673;52.480;13.348;2023-02-03T10:34:16;100493.28;;;11.21;70.75
7264;BME280;3673;52.480;13.348;2023-02-03T10:36:54;100496.53;;;11.54;70.79
7264;BME280;3673;52.480;13.348;2023-02-03T10:39:30;100511.38;;;11.53;70.60
7264;BME280;3673;52.480;13.348;2023-02-03T10:41:59;100502.63;;;11.51;71.15
7264;BME280;3673;52.480;13.348;2023-02-03T10:44:35;100502.88;;;11.25;71.28
7264;BME280;3673;52.480;13.348;2023-02-03T10:47:19;100538.47;;;11.49;71.61
7264;BME280;3673;52.480;13.348;2023-02-03T10:49:50;100584.56;;;11.74;70.89
7264;BME280;3673;52.480;13.348;2023-02-03T10:52:31;100600.59;;;11.33;69.25
7264;BME280;3673;52.480;13.348;2023-02-03T10:54:59;100605.84;;;11.24;66.06
7264;BME280;3673;52.480;13.348;2023-02-03T10:57:30;100583.06;;;11.38;64.74
7264;BME280;3673;52.480;13.348;2023-02-03T11:00:10;100594.78;;;10.75;65.86
7264;BME280;3673;52.480;13.348;2023-02-03T11:02:55;100575.50;;;10.93;66.25
7264;BME280;3673;52.480;13.348;2023-02-03T11:05:23;100592.94;;;11.00;64.96
7264;BME280;3673;52.480;13.348;2023-02-03T11:07:51;100576.47;;;10.77;64.36
7264;BME280;3673;52.480;13.348;2023-02-03T11:10:31;100570.97;;;11.21;63.66
7264;BME280;3673;52.480;13.348;2023-02-03T11:13:18;100581.88;;;11.86;62.60
7264;BME280;3673;52.480;13.348;2023-02-03T11:15:55;100581.69;;;12.06;60.59
7264;BME280;3673;52.480;13.348;2023-02-03T11:18:35;100588.31;;;12.42;58.93
7264;BME280;3673;52.480;13.348;2023-02-03T11:21:08;100570.56;;;11.80;59.09
7264;BME280;3673;52.480;13.348;2023-02-03T11:23:36;100574.28;;;11.49;60.84
7264;BME280;3673;52.480;13.348;2023-02-03T11:26:12;100585.69;;;11.40;59.79
7264;BME280;3673;52.480;13.348;2023-02-03T11:28:42;100573.16;;;11.81;60.38
7264;BME280;3673;52.480;13.348;2023-02-03T11:31:21;100556.78;;;11.52;59.80
7264;BME280;3673;52.480;13.348;2023-02-03T11:33:55;100561.84;;;11.78;59.88
7264;BME280;3673;52.480;13.348;2023-02-03T11:36:26;100570.25;;;11.01;61.13
7264;BME280;3673;52.480;13.348;2023-02-03T11:39:26;100569.16;;;11.33;59.28
7264;BME280;3673;52.480;13.348;2023-02-03T11:41:54;100577.91;;;11.29;59.22
7264;BME280;3673;52.480;13.348;2023-02-03T11:44:24;100581.31;;;11.42;58.64
7264;BME280;3673;52.480;13.348;2023-02-03T11:46:56;100595.47;;;11.08;58.78
7264;BME280;3673;52.480;13.348;2023-02-03T11:49:57;100571.44;;;11.80;58.60
7264;BME280;3673;52.480;13.348;2023-02-03T11:53:08;100576.66;;;11.83;58.15
7264;BME280;3673;52.480;13.348;2023-02-03T11:56:09;100567.25;;;11.52;58.79
7264;BME280;3673;52.480;13.348;2023-02-03T11:58:47;100587.97;;;11.88;57.68
7264;BME280;3673;52.480;13.348;2023-02-03T12:01:33;100580.28;;;11.70;57.30
7264;BME280;3673;52.480;13.348;2023-02-03T12:04:25;100592.28;;;11.97;57.10
7264;BME280;3673;52.480;13.348;2023-02-03T12:07:21;100581.28;;;11.47;58.19
7264;BME280;3673;52.480;13.348;2023-02-03T12:09:55;100589.81;;;11.77;57.83
7264;BME280;3673;52.480;13.348;2023-02-03T12:12:41;100575.88;;;11.72;57.95
7264;BME280;3673;52.480;13.348;2023-02-03T12:15:41;100577.69;;;11.60;57.66
7264;BME280;3673;52.480;13.348;2023-02-03T12:18:36;100593.41;;;11.58;57.40
7264;BME280;3673;52.480;13.348;2023-02-03T12:21:24;100588.63;;;12.13;56.21
7264;BME280;3673;52.480;13.348;2023-02-03T12:24:05;100576.09;;;12.39;54.76
7264;BME280;3673;52.480;13.348;2023-02-03T12:26:40;100578.50;;;11.71;55.42
7264;BME280;3673;52.480;13.348;2023-02-03T12:29:15;100568.47;;;12.17;54.06
7264;BME280;3673;52.480;13.348;2023-02-03T12:31:48;100587.97;;;11.90;54.14
7264;BME280;3673;52.480;13.348;2023-02-03T12:34:22;100575.22;;;12.39;53.21
7264;BME280;3673;52.480;13.348;2023-02-03T12:36:58;100589.59;;;12.03;52.09
7264;BME280;3673;52.480;13.348;2023-02-03T12:39:34;100576.13;;;12.36;51.64
7264;BME280;3673;52.480;13.348;2023-02-03T12:42:10;100600.06;;;12.03;51.35
7264;BME280;3673;52.480;13.348;2023-02-03T12:44:46;100579.81;;;12.19;51.09
7264;BME280;3673;52.480;13.348;2023-02-03T12:47:21;100565.00;;;12.89;50.05
7264;BME280;3673;52.480;13.348;2023-02-03T12:49:55;100582.22;;;12.40;50.92
7264;BME280;3673;52.480;13.348;2023-02-03T12:52:27;100596.63;;;11.95;50.71
7264;BME280;3673;52.480;13.348;2023-02-03T12:55:07;100561.53;;;12.11;50.72
7264;BME280;3673;52.480;13.348;2023-02-03T12:57:45;100589.53;;;12.11;50.78
7264;BME280;3673;52.480;13.348;2023-02-03T13:00:27;100594.03;;;11.95;51.94
7264;BME280;3673;52.480;13.348;2023-02-03T13:03:09;100631.31;;;12.27;51.84
7264;BME280;3673;52.480;13.348;2023-02-03T13:05:42;100644.84;;;11.74;56.12
7264;BME280;3673;52.480;13.348;2023-02-03T13:08:27;100673.94;;;11.29;57.91
7264;BME280;3673;52.480;13.348;2023-02-03T13:11:07;100672.13;;;11.43;58.37
7264;BME280;3673;52.480;13.348;2023-02-03T13:13:46;100679.03;;;11.52;58.26
7264;BME280;3673;52.480;13.348;2023-02-03T13:16:13;100700.09;;;11.36;58.49
7264;BME280;3673;52.480;13.348;2023-02-03T13:18:46;100711.66;;;10.69;60.44
7264;BME280;3673;52.480;13.348;2023-02-03T13:21:15;100731.59;;;11.17;59.87
7264;BME280;3673;52.480;13.348;2023-02-03T13:23:42;100732.53;;;9.79;60.28
7264;BME280;3673;52.480;13.348;2023-02-03T13:29:49;100723.00;;;10.07;60.78
7264;BME280;3673;52.480;13.348;2023-02-03T13:32:45;100709.06;;;10.04;58.84
7264;BME280;3673;52.480;13.348;2023-02-03T13:35:36;100690.72;;;9.69;59.83